createdAt,value
2019-06-07T00:00:40.304Z,4.40
2019-06-07T00:01:37.850Z,4.40
2019-06-07T00:02:37.823Z,4.40
2019-06-07T00:03:37.811Z,4.40
2019-06-07T00:04:37.805Z,4.10
2019-06-07T00:05:37.789Z,4.30
2019-06-07T00:06:37.838Z,4.20
2019-06-07T00:07:37.771Z,3.60
2019-06-07T00:08:37.755Z,4.30
2019-06-07T00:09:37.746Z,4.10
2019-06-07T00:10:37.732Z,4.30
2019-06-07T00:11:37.727Z,4.00
2019-06-07T00:12:37.718Z,3.90
2019-06-07T00:13:37.697Z,4.00
2019-06-07T00:14:37.689Z,4.10
2019-06-07T00:15:37.684Z,3.90
2019-06-07T00:16:37.669Z,4.10
2019-06-07T00:17:37.670Z,3.60
2019-06-07T00:18:37.650Z,3.50
2019-06-07T00:19:37.631Z,3.70
2019-06-07T00:20:37.630Z,3.90
2019-06-07T00:22:38.624Z,3.70
2019-06-07T00:23:37.592Z,3.40
2019-06-07T00:24:37.581Z,3.30
2019-06-07T00:25:37.570Z,3.60
2019-06-07T00:26:57.252Z,3.40
2019-06-07T00:27:38.545Z,3.40
2019-06-07T00:28:37.578Z,3.40
2019-06-07T00:29:37.564Z,3.50
2019-06-07T00:30:50.794Z,3.30
2019-06-07T00:31:38.494Z,3.80
2019-06-07T00:32:37.496Z,3.50
2019-06-07T00:33:37.482Z,3.40
2019-06-07T00:34:37.464Z,3.60
2019-06-07T00:35:37.451Z,3.70
2019-06-07T00:36:37.444Z,3.10
2019-06-07T00:37:37.444Z,3.50
2019-06-07T00:38:37.481Z,3.40
2019-06-07T00:39:37.406Z,3.40
2019-06-07T00:40:37.396Z,3.60
2019-06-07T00:41:37.390Z,3.00
2019-06-07T00:42:37.373Z,3.10
2019-06-07T00:43:37.371Z,3.20
2019-06-07T00:44:37.365Z,2.80
2019-06-07T00:45:37.341Z,2.90
2019-06-07T00:46:37.328Z,2.90
2019-06-07T00:47:37.329Z,2.80
2019-06-07T00:48:37.312Z,3.10
2019-06-07T00:49:41.440Z,2.70
2019-06-07T00:50:37.300Z,3.00
2019-06-07T00:51:49.990Z,3.20
2019-06-07T00:53:38.254Z,2.60
2019-06-07T00:54:37.276Z,2.80
2019-06-07T00:55:37.225Z,2.70
2019-06-07T00:56:37.220Z,2.70
2019-06-07T00:57:37.206Z,2.80
2019-06-07T00:58:37.194Z,2.50
2019-06-07T00:59:37.186Z,2.90
2019-06-07T01:00:37.187Z,2.60
2019-06-07T01:01:37.167Z,2.50
2019-06-07T01:02:37.147Z,2.70
2019-06-07T01:03:37.135Z,2.60
2019-06-07T01:04:37.129Z,2.40
2019-06-07T01:05:37.128Z,2.70
2019-06-07T01:06:37.115Z,2.40
2019-06-07T01:07:37.098Z,2.10
2019-06-07T01:08:37.092Z,2.30
2019-06-07T01:09:37.076Z,1.80
2019-06-07T01:10:53.109Z,1.90
2019-06-07T01:11:38.051Z,1.90
2019-06-07T01:12:37.059Z,2.10
2019-06-07T01:13:37.028Z,2.40
2019-06-07T01:14:37.082Z,2.30
2019-06-07T01:15:37.007Z,2.10
2019-06-07T01:16:56.505Z,2.30
2019-06-07T01:17:50.146Z,2.10
2019-06-07T01:18:43.442Z,1.90
2019-06-07T01:19:37.961Z,2.00
2019-06-07T01:20:36.954Z,1.90
2019-06-07T01:21:37.017Z,1.80
2019-06-07T01:22:36.930Z,1.80
2019-06-07T01:24:37.906Z,1.80
2019-06-07T01:25:36.893Z,2.30
2019-06-07T01:26:36.886Z,1.70
2019-06-07T01:27:36.881Z,2.20
2019-06-07T01:28:36.868Z,2.20
2019-06-07T01:29:36.846Z,2.10
2019-06-07T01:30:36.836Z,2.10
2019-06-07T01:31:36.831Z,2.20
2019-06-07T01:32:36.860Z,2.10
2019-06-07T01:33:50.359Z,2.00
2019-06-07T01:34:37.790Z,2.00
2019-06-07T01:35:36.781Z,2.30
2019-06-07T01:36:36.775Z,2.30
2019-06-07T01:37:36.757Z,2.10
2019-06-07T01:38:36.762Z,2.10
2019-06-07T01:39:36.735Z,2.10
2019-06-07T01:40:36.727Z,2.40
2019-06-07T01:41:36.717Z,2.20
2019-06-07T01:42:36.707Z,2.10
2019-06-07T01:43:36.721Z,2.30
2019-06-07T01:44:36.742Z,2.40
2019-06-07T01:45:36.670Z,2.30
2019-06-07T01:46:36.657Z,2.20
2019-06-07T01:47:36.651Z,1.90
2019-06-07T01:48:48.950Z,1.90
2019-06-07T01:49:37.634Z,2.20
2019-06-07T01:50:36.610Z,2.30
2019-06-07T01:51:36.605Z,2.30
2019-06-07T01:52:36.595Z,2.40
2019-06-07T01:53:36.583Z,1.80
2019-06-07T01:54:57.958Z,2.20
2019-06-07T01:55:37.561Z,2.30
2019-06-07T01:56:36.552Z,2.20
2019-06-07T01:57:47.561Z,1.90
2019-06-07T01:58:37.526Z,1.80
2019-06-07T01:59:36.574Z,1.90
2019-06-07T02:00:36.519Z,2.10
2019-06-07T02:01:36.495Z,1.80
2019-06-07T02:02:36.483Z,2.00
2019-06-07T02:03:36.490Z,1.80
2019-06-07T02:04:36.456Z,1.90
2019-06-07T02:05:36.462Z,1.80
2019-06-07T02:06:36.443Z,2.00
2019-06-07T02:07:36.423Z,1.80
2019-06-07T02:08:36.417Z,1.90
2019-06-07T02:09:36.407Z,1.60
2019-06-07T02:10:36.407Z,1.60
2019-06-07T02:11:36.395Z,1.60
2019-06-07T02:12:43.261Z,1.80
2019-06-07T02:13:37.357Z,1.90
2019-06-07T02:14:36.350Z,1.70
2019-06-07T02:15:36.915Z,1.60
2019-06-07T02:16:36.389Z,1.90
2019-06-07T02:17:36.319Z,1.80
2019-06-07T02:18:36.307Z,1.70
2019-06-07T02:19:36.285Z,1.90
2019-06-07T02:20:36.276Z,2.10
2019-06-07T02:21:36.268Z,2.00
2019-06-07T02:22:36.276Z,1.70
2019-06-07T02:23:36.246Z,1.90
2019-06-07T02:24:36.743Z,1.70
2019-06-07T02:25:43.787Z,2.20
2019-06-07T02:26:37.208Z,2.10
2019-06-07T02:27:36.226Z,2.40
2019-06-07T02:28:45.009Z,2.10
2019-06-07T02:29:37.179Z,1.80
2019-06-07T02:30:46.145Z,2.00
2019-06-07T02:31:39.846Z,2.10
2019-06-07T02:32:37.057Z,2.60
2019-06-07T02:33:40.210Z,2.10
2019-06-07T02:34:39.504Z,2.00
2019-06-07T02:35:40.179Z,1.90
2019-06-07T02:36:41.294Z,2.30
2019-06-07T02:37:37.657Z,2.20
2019-06-07T02:38:37.810Z,2.10
2019-06-07T02:39:39.972Z,2.10
2019-06-07T02:40:37.523Z,2.20
2019-06-07T02:41:39.881Z,2.00
2019-06-07T02:42:42.263Z,2.00
2019-06-07T02:43:37.461Z,2.10
2019-06-07T02:44:39.599Z,1.80
2019-06-07T02:45:42.721Z,1.70
2019-06-07T02:46:46.484Z,2.10
2019-06-07T02:47:38.340Z,2.00
2019-06-07T02:48:40.094Z,2.30
2019-06-07T02:49:41.148Z,2.20
2019-06-07T02:50:38.689Z,2.10
2019-06-07T02:51:41.698Z,2.10
2019-06-07T02:52:40.721Z,2.10
2019-06-07T02:53:40.070Z,2.20
2019-06-07T02:54:39.762Z,2.20
2019-06-07T02:56:26.158Z,2.00
2019-06-07T02:56:55.621Z,2.20
2019-06-07T02:57:41.236Z,2.40
2019-06-07T02:58:41.506Z,2.30
2019-06-07T03:00:03.111Z,2.00
2019-06-07T03:01:00.543Z,2.10
2019-06-07T03:01:41.849Z,2.50
2019-06-07T03:02:41.220Z,2.50
2019-06-07T03:03:39.445Z,2.70
2019-06-07T03:04:41.563Z,2.50
2019-06-07T03:05:40.787Z,2.90
2019-06-07T03:06:39.376Z,2.90
2019-06-07T03:07:40.206Z,2.40
2019-06-07T03:08:37.129Z,2.50
2019-06-07T03:09:37.077Z,2.60
2019-06-07T03:10:37.728Z,2.50
2019-06-07T03:11:37.612Z,2.70
2019-06-07T03:12:35.726Z,2.70
2019-06-07T03:13:37.583Z,2.40
2019-06-07T03:14:35.685Z,2.90
2019-06-07T03:15:47.713Z,2.50
2019-06-07T03:16:37.306Z,2.70
2019-06-07T03:17:38.372Z,2.90
2019-06-07T03:18:36.490Z,2.90
2019-06-07T03:19:37.831Z,2.90
2019-06-07T03:20:36.789Z,3.30
2019-06-07T03:21:36.387Z,2.90
2019-06-07T03:22:39.934Z,2.80
2019-06-07T03:23:36.607Z,3.10
2019-06-07T03:24:38.370Z,2.80
2019-06-07T03:25:37.283Z,2.70
2019-06-07T03:27:23.056Z,3.10
2019-06-07T03:27:48.274Z,3.20
2019-06-07T03:28:37.949Z,2.80
2019-06-07T03:29:36.614Z,3.00
2019-06-07T03:30:47.067Z,3.60
2019-06-07T03:31:41.568Z,3.00
2019-06-07T03:32:42.936Z,2.80
2019-06-07T03:33:44.490Z,2.90
2019-06-07T03:34:41.318Z,2.60
2019-06-07T03:35:37.474Z,3.10
2019-06-07T03:36:39.998Z,2.90
2019-06-07T03:37:40.637Z,3.80
2019-06-07T03:38:37.630Z,3.00
2019-06-07T03:39:37.010Z,2.90
2019-06-07T03:40:39.626Z,2.80
2019-06-07T03:41:43.825Z,2.90
2019-06-07T03:42:39.736Z,2.80
2019-06-07T03:43:39.959Z,2.90
2019-06-07T03:44:40.628Z,3.60
2019-06-07T03:45:40.979Z,2.90
2019-06-07T03:46:38.930Z,2.60
2019-06-07T03:47:39.337Z,2.80
2019-06-07T03:48:40.651Z,2.80
2019-06-07T03:49:40.113Z,2.80
2019-06-07T03:50:39.574Z,3.00
2019-06-07T03:51:39.663Z,2.90
2019-06-07T03:52:38.559Z,3.00
2019-06-07T03:53:37.375Z,2.80
2019-06-07T03:54:38.452Z,2.70
2019-06-07T03:55:39.106Z,2.60
2019-06-07T03:56:38.651Z,2.60
2019-06-07T03:58:28.831Z,2.60
2019-06-07T03:58:47.851Z,2.50
2019-06-07T03:59:39.051Z,2.70
2019-06-07T04:00:39.053Z,2.50
2019-06-07T04:01:39.789Z,2.70
2019-06-07T04:02:40.801Z,2.20
2019-06-07T04:03:46.934Z,2.60
2019-06-07T04:04:38.465Z,2.60
2019-06-07T04:05:40.263Z,2.60
2019-06-07T04:06:38.880Z,2.50
2019-06-07T04:07:39.246Z,2.40
2019-06-07T04:08:39.690Z,2.30
2019-06-07T04:09:41.912Z,2.30
2019-06-07T04:10:53.515Z,2.20
2019-06-07T04:11:39.496Z,2.30
2019-06-07T04:12:41.345Z,2.10
2019-06-07T04:13:39.870Z,2.10
2019-06-07T04:14:38.400Z,2.50
2019-06-07T04:15:39.238Z,2.40
2019-06-07T04:16:40.426Z,2.80
2019-06-07T04:17:37.166Z,2.50
2019-06-07T04:18:36.436Z,2.70
2019-06-07T04:19:39.408Z,2.60
2019-06-07T04:20:38.106Z,2.40
2019-06-07T04:21:37.265Z,2.40
2019-06-07T04:22:39.756Z,2.60
2019-06-07T04:23:41.791Z,3.60
2019-06-07T04:24:38.865Z,3.30
2019-06-07T04:25:39.441Z,2.40
2019-06-07T04:26:37.442Z,2.50
2019-06-07T04:27:37.670Z,2.60
2019-06-07T04:29:26.034Z,2.50
2019-06-07T04:29:56.892Z,2.30
2019-06-07T04:30:38.547Z,2.30
2019-06-07T04:31:36.960Z,2.00
2019-06-07T04:32:37.152Z,2.50
2019-06-07T04:33:39.309Z,2.00
2019-06-07T04:34:38.351Z,2.70
2019-06-07T04:35:37.207Z,2.30
2019-06-07T04:36:46.018Z,2.40
2019-06-07T04:37:39.082Z,2.20
2019-06-07T04:38:39.261Z,2.40
2019-06-07T04:39:38.146Z,2.40
2019-06-07T04:40:36.848Z,2.40
2019-06-07T04:41:37.229Z,2.20
2019-06-07T04:42:38.458Z,2.20
2019-06-07T04:43:38.027Z,2.20
2019-06-07T04:44:37.082Z,2.10
2019-06-07T04:45:41.952Z,2.40
2019-06-07T04:46:39.863Z,1.90
2019-06-07T04:47:37.242Z,2.40
2019-06-07T04:48:36.026Z,2.10
2019-06-07T04:49:38.202Z,2.20
2019-06-07T04:50:38.308Z,2.40
2019-06-07T04:51:37.251Z,1.90
2019-06-07T04:52:39.889Z,1.90
2019-06-07T04:53:38.629Z,1.90
2019-06-07T04:54:37.854Z,1.60
2019-06-07T04:55:38.646Z,1.50
2019-06-07T04:56:40.893Z,1.70
2019-06-07T04:57:37.611Z,2.10
2019-06-07T04:58:35.780Z,2.00
2019-06-07T05:00:11.130Z,1.80
2019-06-07T05:00:56.494Z,1.70
2019-06-07T05:01:37.456Z,1.80
2019-06-07T05:02:39.843Z,1.80
2019-06-07T05:03:38.953Z,1.90
2019-06-07T05:04:37.121Z,1.80
2019-06-07T05:05:37.494Z,1.90
2019-06-07T05:06:37.665Z,2.10
2019-06-07T05:07:35.205Z,1.90
2019-06-07T05:08:36.153Z,2.40
2019-06-07T05:09:37.573Z,1.80
2019-06-07T05:10:36.149Z,1.80
2019-06-07T05:11:36.435Z,2.20
2019-06-07T05:12:36.152Z,2.10
2019-06-07T05:13:38.491Z,2.20
2019-06-07T05:14:36.739Z,2.30
2019-06-07T05:15:35.237Z,2.50
2019-06-07T05:16:36.837Z,2.00
2019-06-07T05:17:34.706Z,2.10
2019-06-07T05:18:36.311Z,2.10
2019-06-07T05:19:38.526Z,2.70
2019-06-07T05:20:36.087Z,2.00
2019-06-07T05:21:54.209Z,1.80
2019-06-07T05:22:41.978Z,2.00
2019-06-07T05:24:05.639Z,2.30
2019-06-07T05:24:38.475Z,2.10
2019-06-07T05:25:36.471Z,2.00
2019-06-07T05:26:37.698Z,2.40
2019-06-07T05:27:36.476Z,2.10
2019-06-07T05:28:35.131Z,2.30
2019-06-07T05:29:36.790Z,1.90
2019-06-07T05:31:37.475Z,2.20
2019-06-07T05:32:34.996Z,2.30
2019-06-07T05:33:36.601Z,2.00
2019-06-07T05:34:36.273Z,2.20
2019-06-07T05:35:35.575Z,1.70
2019-06-07T05:36:36.698Z,1.90
2019-06-07T05:37:35.824Z,1.90
2019-06-07T05:38:35.942Z,1.90
2019-06-07T05:39:36.842Z,1.90
2019-06-07T05:40:34.905Z,1.90
2019-06-07T05:41:34.247Z,1.80
2019-06-07T05:42:36.910Z,1.70
2019-06-07T05:43:39.311Z,1.90
2019-06-07T05:44:36.525Z,2.30
2019-06-07T05:45:37.631Z,2.10
2019-06-07T05:46:38.628Z,2.30
2019-06-07T05:47:38.461Z,2.10
2019-06-07T05:48:36.615Z,2.00
2019-06-07T05:49:37.904Z,1.70
2019-06-07T05:50:44.827Z,2.30
2019-06-07T05:51:37.258Z,2.40
2019-06-07T05:52:38.482Z,2.90
2019-06-07T05:53:34.928Z,2.40
2019-06-07T05:54:35.105Z,2.10
2019-06-07T05:55:35.306Z,2.20
2019-06-07T05:56:35.730Z,2.20
2019-06-07T05:57:36.333Z,2.20
2019-06-07T05:58:35.177Z,2.10
2019-06-07T05:59:37.931Z,2.00
2019-06-07T06:00:36.404Z,2.30
2019-06-07T06:02:01.961Z,2.60
2019-06-07T06:02:57.640Z,2.30
2019-06-07T06:03:36.167Z,2.00
2019-06-07T06:04:33.905Z,2.00
2019-06-07T06:05:39.307Z,2.00
2019-06-07T06:06:36.337Z,2.40
2019-06-07T06:07:35.781Z,2.00
2019-06-07T06:08:36.580Z,1.80
2019-06-07T06:09:35.338Z,2.30
2019-06-07T06:10:34.059Z,2.20
2019-06-07T06:11:47.032Z,2.20
2019-06-07T06:12:39.107Z,1.90
2019-06-07T06:13:34.715Z,1.80
2019-06-07T06:14:35.376Z,1.70
2019-06-07T06:15:46.364Z,2.00
2019-06-07T06:16:34.724Z,2.10
2019-06-07T06:17:33.697Z,2.10
2019-06-07T06:18:33.660Z,2.20
2019-06-07T06:19:33.651Z,1.80
2019-06-07T06:20:59.992Z,1.90
2019-06-07T06:21:34.632Z,2.00
2019-06-07T06:22:33.629Z,2.10
2019-06-07T06:23:33.602Z,2.00
2019-06-07T06:24:33.598Z,2.10
2019-06-07T06:25:34.436Z,2.20
2019-06-07T06:26:33.611Z,2.00
2019-06-07T06:28:36.915Z,2.30
2019-06-07T06:29:33.538Z,2.00
2019-06-07T06:30:33.553Z,2.10
2019-06-07T06:31:33.535Z,1.90
2019-06-07T06:32:47.184Z,1.90
2019-06-07T06:33:35.099Z,2.30
2019-06-07T06:34:33.490Z,2.30
2019-06-07T06:35:33.471Z,2.00
2019-06-07T06:36:33.461Z,1.80
2019-06-07T06:37:33.487Z,2.00
2019-06-07T06:38:33.442Z,2.00
2019-06-07T06:39:33.430Z,1.80
2019-06-07T06:40:33.450Z,1.50
2019-06-07T06:41:46.091Z,1.80
2019-06-07T06:42:34.437Z,1.50
2019-06-07T06:43:33.388Z,2.50
2019-06-07T06:44:33.382Z,1.50
2019-06-07T06:45:33.386Z,1.90
2019-06-07T06:46:38.825Z,2.00
2019-06-07T06:47:34.353Z,1.90
2019-06-07T06:48:33.344Z,1.90
2019-06-07T06:49:33.321Z,1.60
2019-06-07T06:50:33.311Z,2.00
2019-06-07T06:51:33.303Z,1.60
2019-06-07T06:52:33.324Z,1.60
2019-06-07T06:53:33.284Z,1.70
2019-06-07T06:54:40.564Z,1.70
2019-06-07T06:55:34.259Z,1.60
2019-06-07T06:56:33.247Z,1.70
2019-06-07T06:57:33.240Z,1.90
2019-06-07T06:59:18.627Z,2.00
2019-06-07T06:59:39.359Z,1.40
2019-06-07T07:00:49.006Z,2.20
2019-06-07T07:01:34.195Z,2.50
2019-06-07T07:02:33.178Z,3.20
2019-06-07T07:03:57.557Z,3.20
2019-06-07T07:04:34.207Z,4.50
2019-06-07T07:05:33.150Z,4.80
2019-06-07T07:06:33.135Z,3.50
2019-06-07T07:07:33.128Z,3.30
2019-06-07T07:08:33.119Z,3.30
2019-06-07T07:09:33.104Z,3.10
2019-06-07T07:10:33.113Z,3.50
2019-06-07T07:11:33.094Z,3.60
2019-06-07T07:12:33.077Z,3.00
2019-06-07T07:13:33.102Z,2.60
2019-06-07T07:14:33.140Z,3.30
2019-06-07T07:15:33.047Z,3.80
2019-06-07T07:16:33.034Z,4.40
2019-06-07T07:17:50.665Z,4.30
2019-06-07T07:18:34.019Z,3.90
2019-06-07T07:19:32.999Z,3.30
2019-06-07T07:20:32.992Z,3.00
2019-06-07T07:21:32.999Z,3.40
2019-06-07T07:22:32.972Z,3.30
2019-06-07T07:23:32.966Z,3.00
2019-06-07T07:24:32.955Z,3.70
2019-06-07T07:25:32.953Z,3.30
2019-06-07T07:26:32.927Z,3.20
2019-06-07T07:27:32.933Z,3.90
2019-06-07T07:28:32.931Z,3.20
2019-06-07T07:29:32.895Z,3.30
2019-06-07T07:30:36.707Z,3.00
2019-06-07T07:31:32.868Z,2.70
2019-06-07T07:32:32.908Z,2.90
2019-06-07T07:34:20.584Z,3.40
2019-06-07T07:34:37.064Z,3.80
2019-06-07T07:35:32.826Z,4.40
2019-06-07T07:36:39.241Z,4.40
2019-06-07T07:37:33.809Z,4.20
2019-06-07T07:38:32.800Z,4.50
2019-06-07T07:39:32.816Z,4.00
2019-06-07T07:40:57.331Z,4.10
2019-06-07T07:41:33.764Z,3.80
2019-06-07T07:42:32.752Z,3.50
2019-06-07T07:43:32.745Z,3.90
2019-06-07T07:44:32.731Z,4.30
2019-06-07T07:45:32.737Z,4.10
2019-06-07T07:46:32.718Z,4.10
2019-06-07T07:47:32.699Z,3.60
2019-06-07T07:48:32.858Z,4.00
2019-06-07T07:49:32.695Z,3.60
2019-06-07T07:50:32.721Z,3.70
2019-06-07T07:51:32.673Z,3.80
2019-06-07T07:52:32.649Z,3.30
2019-06-07T07:53:48.262Z,4.00
2019-06-07T07:54:33.626Z,3.80
2019-06-07T07:55:32.707Z,3.90
2019-06-07T07:56:32.600Z,3.50
2019-06-07T07:57:32.598Z,3.40
2019-06-07T07:58:32.581Z,3.50
2019-06-07T07:59:41.746Z,3.70
2019-06-07T08:00:52.795Z,3.90
2019-06-07T08:01:33.549Z,3.50
2019-06-07T08:02:32.547Z,4.00
2019-06-07T08:03:32.530Z,3.90
2019-06-07T08:05:13.068Z,3.40
2019-06-07T08:05:42.384Z,3.60
2019-06-07T08:06:33.491Z,3.50
2019-06-07T08:07:32.486Z,4.90
2019-06-07T08:08:32.471Z,3.40
2019-06-07T08:09:32.466Z,3.70
2019-06-07T08:10:32.451Z,3.60
2019-06-07T08:11:32.509Z,2.60
2019-06-07T08:12:55.896Z,2.90
2019-06-07T08:13:33.547Z,2.30
2019-06-07T08:14:32.412Z,2.40
2019-06-07T08:15:32.398Z,3.00
2019-06-07T08:16:32.412Z,4.20
2019-06-07T08:17:32.417Z,6.40
2019-06-07T08:18:32.375Z,3.00
2019-06-07T08:19:32.357Z,2.60
2019-06-07T08:20:32.345Z,2.50
2019-06-07T08:21:32.336Z,2.60
2019-06-07T08:22:32.358Z,3.40
2019-06-07T08:23:32.316Z,2.40
2019-06-07T08:24:32.318Z,2.10
2019-06-07T08:25:32.331Z,2.70
2019-06-07T08:26:32.280Z,2.50
2019-06-07T08:27:32.276Z,2.50
2019-06-07T08:28:32.291Z,2.10
2019-06-07T08:29:44.410Z,2.40
2019-06-07T08:30:56.196Z,2.00
2019-06-07T08:31:33.231Z,2.40
2019-06-07T08:32:32.221Z,1.90
2019-06-07T08:33:32.218Z,2.00
2019-06-07T08:34:32.242Z,2.10
2019-06-07T08:36:03.653Z,1.80
2019-06-07T08:36:41.852Z,1.60
2019-06-07T08:38:14.218Z,1.60
2019-06-07T08:38:46.840Z,1.80
2019-06-07T08:39:33.173Z,1.60
2019-06-07T08:40:32.162Z,1.90
2019-06-07T08:41:32.128Z,1.80
2019-06-07T08:42:37.549Z,1.80
2019-06-07T08:43:33.113Z,1.70
2019-06-07T08:44:32.106Z,1.90
2019-06-07T08:45:32.084Z,2.60
2019-06-07T08:46:32.077Z,2.50
2019-06-07T08:47:32.070Z,1.80
2019-06-07T08:48:32.052Z,2.00
2019-06-07T08:49:32.064Z,1.90
2019-06-07T08:50:32.039Z,1.80
2019-06-07T08:51:32.026Z,2.20
2019-06-07T08:52:32.013Z,1.80
2019-06-07T08:53:32.008Z,1.80
2019-06-07T08:54:32.006Z,1.80
2019-06-07T08:55:31.986Z,1.80
2019-06-07T08:56:31.968Z,1.90
2019-06-07T08:57:31.968Z,1.90
2019-06-07T08:58:31.949Z,2.10
2019-06-07T08:59:31.951Z,1.70
2019-06-07T09:00:48.026Z,1.50
2019-06-07T09:01:32.918Z,1.70
2019-06-07T09:02:31.905Z,1.80
2019-06-07T09:03:31.898Z,2.00
2019-06-07T09:04:31.899Z,1.60
2019-06-07T09:05:31.880Z,2.00
2019-06-07T09:07:06.727Z,1.70
2019-06-07T09:07:32.856Z,1.70
2019-06-07T09:08:31.849Z,1.40
2019-06-07T09:09:31.836Z,1.80
2019-06-07T09:10:32.689Z,1.60
2019-06-07T09:11:31.957Z,1.70
2019-06-07T09:12:31.804Z,1.50
2019-06-07T09:13:31.793Z,1.50
2019-06-07T09:14:31.785Z,1.60
2019-06-07T09:15:31.767Z,1.40
2019-06-07T09:16:31.758Z,1.70
2019-06-07T09:17:31.761Z,1.80
2019-06-07T09:18:41.988Z,1.60
2019-06-07T09:19:32.729Z,1.70
2019-06-07T09:20:36.820Z,1.60
2019-06-07T09:21:32.724Z,2.00
2019-06-07T09:22:31.709Z,1.60
2019-06-07T09:23:31.691Z,2.20
2019-06-07T09:24:31.680Z,1.70
2019-06-07T09:25:31.669Z,1.60
2019-06-07T09:26:31.656Z,1.70
2019-06-07T09:27:31.667Z,1.80
2019-06-07T09:28:31.648Z,1.50
2019-06-07T09:29:31.670Z,1.60
2019-06-07T09:30:31.617Z,1.80
2019-06-07T09:31:51.065Z,1.70
2019-06-07T09:32:32.598Z,2.10
2019-06-07T09:33:31.586Z,2.50
2019-06-07T09:34:31.575Z,2.20
2019-06-07T09:35:31.567Z,2.10
2019-06-07T09:36:31.546Z,1.90
2019-06-07T09:38:04.588Z,2.10
2019-06-07T09:38:32.523Z,2.10
2019-06-07T09:39:31.515Z,1.80
2019-06-07T09:40:31.513Z,1.80
2019-06-07T09:41:46.975Z,2.30
2019-06-07T09:42:32.503Z,2.20
2019-06-07T09:44:00.564Z,2.10
2019-06-07T09:44:32.479Z,2.20
2019-06-07T09:45:31.453Z,1.80
2019-06-07T09:46:31.447Z,2.10
2019-06-07T09:47:32.938Z,2.20
2019-06-07T09:49:09.742Z,2.00
2019-06-07T09:49:33.459Z,1.90
2019-06-07T09:50:31.397Z,1.70
2019-06-07T09:51:31.405Z,1.80
2019-06-07T09:52:31.384Z,1.70
2019-06-07T09:53:31.383Z,2.00
2019-06-07T09:55:03.939Z,2.20
2019-06-07T09:55:32.381Z,2.10
2019-06-07T09:56:31.351Z,1.90
2019-06-07T09:57:31.329Z,1.70
2019-06-07T09:58:50.939Z,1.70
2019-06-07T09:59:32.303Z,2.00
2019-06-07T10:00:40.661Z,2.00
2019-06-07T10:01:32.304Z,1.60
2019-06-07T10:02:31.277Z,1.50
2019-06-07T10:03:31.260Z,1.90
2019-06-07T10:04:31.747Z,1.80
2019-06-07T10:05:31.245Z,1.70
2019-06-07T10:06:31.233Z,2.00
2019-06-07T10:07:32.116Z,2.00
2019-06-07T10:11:31.186Z,1.70
2019-06-07T10:12:31.207Z,1.60
2019-06-07T10:13:31.161Z,1.70
2019-06-07T10:14:31.152Z,1.90
2019-06-07T10:15:31.140Z,2.20
2019-06-07T10:16:45.797Z,1.90
2019-06-07T10:17:32.130Z,2.00
2019-06-07T10:18:31.120Z,1.90
2019-06-07T10:19:31.099Z,1.70
2019-06-07T10:20:31.087Z,2.00
2019-06-07T10:21:31.076Z,2.00
2019-06-07T10:22:31.081Z,2.00
2019-06-07T10:23:31.093Z,2.10
2019-06-07T10:24:31.048Z,2.20
2019-06-07T10:25:31.038Z,1.90
2019-06-07T10:26:31.031Z,2.20
2019-06-07T10:27:31.027Z,2.10
2019-06-07T10:28:31.020Z,2.30
2019-06-07T10:29:31.004Z,2.10
2019-06-07T10:30:31.004Z,1.80
2019-06-07T10:31:30.984Z,2.00
2019-06-07T10:32:30.975Z,2.10
2019-06-07T10:33:30.959Z,2.50
2019-06-07T10:34:30.949Z,2.90
2019-06-07T10:35:31.079Z,2.60
2019-06-07T10:36:30.935Z,2.40
2019-06-07T10:37:30.922Z,2.10
2019-06-07T10:38:30.912Z,2.10
2019-06-07T10:39:47.372Z,1.80
2019-06-07T10:40:31.900Z,1.90
2019-06-07T10:41:30.879Z,1.70
2019-06-07T10:42:30.868Z,1.90
2019-06-07T10:43:30.860Z,1.90
2019-06-07T10:44:30.876Z,1.90
2019-06-07T10:45:30.837Z,2.10
2019-06-07T10:46:30.826Z,1.70
2019-06-07T10:47:30.811Z,1.90
2019-06-07T10:48:30.811Z,1.70
2019-06-07T10:49:30.797Z,1.70
2019-06-07T10:50:30.798Z,1.90
2019-06-07T10:51:30.811Z,2.30
2019-06-07T10:52:30.763Z,2.10
2019-06-07T10:53:30.756Z,1.80
2019-06-07T10:54:30.993Z,2.00
2019-06-07T10:55:30.743Z,2.30
2019-06-07T10:56:30.744Z,2.30
2019-06-07T10:57:30.728Z,4.20
2019-06-07T10:58:30.707Z,2.20
2019-06-07T10:59:30.702Z,2.10
2019-06-07T11:00:30.717Z,2.60
2019-06-07T11:01:30.674Z,2.10
2019-06-07T11:02:30.684Z,1.90
2019-06-07T11:03:30.657Z,2.20
2019-06-07T11:04:30.647Z,2.30
2019-06-07T11:05:30.647Z,2.30
2019-06-07T11:06:30.630Z,2.30
2019-06-07T11:07:30.649Z,2.30
2019-06-07T11:08:30.623Z,1.60
2019-06-07T11:09:30.600Z,2.00
2019-06-07T11:10:30.584Z,2.00
2019-06-07T11:11:30.587Z,2.30
2019-06-07T11:12:30.571Z,2.10
2019-06-07T11:13:30.578Z,2.00
2019-06-07T11:14:30.551Z,2.20
2019-06-07T11:15:30.538Z,2.00
2019-06-07T11:16:30.530Z,1.90
2019-06-07T11:17:30.522Z,2.10
2019-06-07T11:18:30.535Z,2.20
2019-06-07T11:19:30.498Z,2.30
2019-06-07T11:20:30.496Z,2.00
2019-06-07T11:21:30.489Z,2.20
2019-06-07T11:22:30.473Z,2.00
2019-06-07T11:23:30.478Z,2.20
2019-06-07T11:24:30.457Z,1.90
2019-06-07T11:25:30.444Z,2.20
2019-06-07T11:26:30.443Z,2.00
2019-06-07T11:27:30.426Z,2.10
2019-06-07T11:28:30.426Z,1.90
2019-06-07T11:29:30.428Z,2.20
2019-06-07T11:30:30.392Z,2.10
2019-06-07T11:31:30.387Z,1.70
2019-06-07T11:32:30.373Z,2.00
2019-06-07T11:33:30.364Z,2.10
2019-06-07T11:34:30.374Z,1.80
2019-06-07T11:35:30.344Z,2.20
2019-06-07T11:36:30.409Z,2.00
2019-06-07T11:37:30.328Z,2.10
2019-06-07T11:38:30.317Z,1.90
2019-06-07T11:39:30.307Z,1.70
2019-06-07T11:40:35.658Z,2.20
2019-06-07T11:41:31.298Z,2.00
2019-06-07T11:42:30.283Z,2.10
2019-06-07T11:43:30.267Z,1.80
2019-06-07T11:44:30.256Z,1.90
2019-06-07T11:45:30.265Z,1.90
2019-06-07T11:46:30.254Z,1.80
2019-06-07T11:47:30.249Z,1.70
2019-06-07T11:48:30.219Z,2.00
2019-06-07T11:49:30.208Z,2.30
2019-06-07T11:50:30.233Z,2.20
2019-06-07T11:51:30.199Z,2.00
2019-06-07T11:52:30.191Z,2.20
2019-06-07T11:53:30.176Z,2.20
2019-06-07T11:54:30.162Z,2.40
2019-06-07T11:55:30.163Z,2.20
2019-06-07T11:56:30.157Z,1.80
2019-06-07T11:57:30.147Z,1.80
2019-06-07T11:58:30.128Z,2.40
2019-06-07T11:59:30.120Z,2.20
2019-06-07T12:00:33.892Z,2.10
2019-06-07T12:01:30.107Z,2.30
2019-06-07T12:02:30.086Z,2.00
2019-06-07T12:03:30.070Z,1.90
2019-06-07T12:04:34.701Z,2.00
2019-06-07T12:05:30.053Z,1.70
2019-06-07T12:06:30.039Z,2.40
2019-06-07T12:07:30.040Z,2.40
2019-06-07T12:08:30.025Z,1.90
2019-06-07T12:09:30.012Z,2.30
2019-06-07T12:10:41.790Z,2.00
2019-06-07T12:11:30.989Z,2.10
2019-06-07T12:12:29.977Z,2.70
2019-06-07T12:13:29.994Z,1.70
2019-06-07T12:14:29.960Z,2.20
2019-06-07T12:15:29.950Z,1.80
2019-06-07T12:16:29.941Z,1.80
2019-06-07T12:17:29.931Z,1.80
2019-06-07T12:18:29.916Z,2.00
2019-06-07T12:19:29.921Z,2.10
2019-06-07T12:20:29.899Z,1.80
2019-06-07T12:21:29.882Z,1.70
2019-06-07T12:22:29.875Z,1.90
2019-06-07T12:23:29.886Z,1.90
2019-06-07T12:24:29.863Z,2.00
2019-06-07T12:25:29.845Z,1.90
2019-06-07T12:26:29.832Z,2.00
2019-06-07T12:27:29.837Z,2.00
2019-06-07T12:28:29.827Z,2.70
2019-06-07T12:29:29.803Z,2.40
2019-06-07T12:30:29.797Z,2.50
2019-06-07T12:31:29.783Z,2.40
2019-06-07T12:32:29.785Z,2.30
2019-06-07T12:33:29.776Z,2.20
2019-06-07T12:34:29.790Z,2.30
2019-06-07T12:35:29.741Z,2.60
2019-06-07T12:36:29.755Z,2.20
2019-06-07T12:37:43.178Z,2.30
2019-06-07T12:38:30.708Z,2.30
2019-06-07T12:39:29.696Z,2.30
2019-06-07T12:40:32.272Z,2.00
2019-06-07T12:41:29.682Z,2.50
2019-06-07T12:42:29.670Z,2.00
2019-06-07T12:43:29.689Z,2.90
2019-06-07T12:44:29.667Z,2.50
2019-06-07T12:45:44.285Z,2.40
2019-06-07T12:46:30.625Z,2.70
2019-06-07T12:47:29.612Z,2.50
2019-06-07T12:48:29.602Z,2.70
2019-06-07T12:49:29.617Z,3.00
2019-06-07T12:50:42.657Z,2.40
2019-06-07T12:51:30.570Z,2.30
2019-06-07T12:52:29.568Z,2.20
2019-06-07T12:53:29.547Z,2.70
2019-06-07T12:54:29.553Z,2.80
2019-06-07T12:55:29.532Z,2.40
2019-06-07T12:56:29.517Z,2.60
2019-06-07T12:57:29.517Z,2.80
2019-06-07T12:58:35.068Z,2.50
2019-06-07T12:59:30.500Z,2.30
2019-06-07T13:00:29.484Z,2.80
2019-06-07T13:01:29.465Z,2.10
2019-06-07T13:02:29.462Z,2.40
2019-06-07T13:03:29.451Z,2.60
2019-06-07T13:04:29.465Z,2.60
2019-06-07T13:05:29.423Z,2.70
2019-06-07T13:06:29.427Z,3.70
2019-06-07T13:07:29.406Z,2.70
2019-06-07T13:08:29.391Z,2.60
2019-06-07T13:09:29.385Z,2.70
2019-06-07T13:10:29.388Z,2.40
2019-06-07T13:11:31.581Z,2.60
2019-06-07T13:12:29.347Z,2.50
2019-06-07T13:13:29.340Z,2.50
2019-06-07T13:14:29.333Z,2.40
2019-06-07T13:15:29.347Z,2.20
2019-06-07T13:16:29.311Z,4.90
2019-06-07T13:17:29.294Z,3.50
2019-06-07T13:18:29.315Z,3.80
2019-06-07T13:19:29.281Z,3.00
2019-06-07T13:20:29.336Z,2.60
2019-06-07T13:21:29.259Z,2.70
2019-06-07T13:22:29.256Z,2.60
2019-06-07T13:23:29.241Z,2.70
2019-06-07T13:24:29.221Z,3.20
2019-06-07T13:25:44.994Z,3.00
2019-06-07T13:26:30.210Z,6.00